Zadar, Croatia

09:26 CET 21. Leden 2017 (GMT +0100)
Mrljane | | Change Station

Výška 26 ft 43.97 °N, 15.35 °E | Updated 11 seconds ago

Jasno
Jasno
36.7 °F
Pocit jako 37 °F
S
0.6
Vítr proměnlivý Vítr od JV
Gusts 2.5 mil/h

Dnes
Vysoké -- | Nízké -- °F
--% Možnost srážek
Včera
Vysoké -- | Nízké -- °F
Precip. -- inčů
Tlak 30.42 inčů
Viditelnost -9999.0 mílí
Zataženo
Ochlazování větrem 37 °F
Rosný bod 30 °F
Vlhkost 77%
Dešťové srážky 0.00 inčů
Sněhová pokrývka Není k dispozici
7:25 AM 4:53 PM
Ubývající, 37% visible
METAR LDZD 210800Z VRB01KT CAVOK 00/M04 Q1030 NOSIG
Tlak 30.42 inčů
Viditelnost -9999.0 mílí
Zataženo
Ochlazování větrem 37 °F
Rosný bod 30 °F
Vlhkost 77%
Dešťové srážky 0.00 inčů
Sněhová pokrývka Není k dispozici
7:25 AM 4:53 PM
Ubývající, 37% visible
METAR LDZD 210800Z VRB01KT CAVOK 00/M04 Q1030 NOSIG

Get Your Daily Forecast Email!

Thanks for signing up!

Be on the lookout for a verification email in your inbox.

You'll start receiving the daily forecast at 8 AM.

×

10-Day Weather Forecast

×

Almanac

Astronomie

Jan. 21, 2017 Východ Západ
Skutečný čas
Občanský soumrak
Námořní soumrak
Astronomický soumrak
Měsíc
Délka denního světla
Délka dne
Tomorrow will be .
, % of the Moon is Illuminated

Dnešní extrémy

Nejvyšší hodnoty ve státě Nejnižší hodnoty ve státě

Community

WunderPhotos

Upload Photos

1,962,540 snímků staženo!

WunderBlog® & News

Nearby

Kvalita ovzduší

  Kvalita ovzduší Index kvality ovzduší Polutant
Not available.

Výška sněhu

Station Hloubka Nadmořská výška

Seizmická činnost

Město Distance Mag. Čas & datum
Minimální zobrazený rozsah je 2.5.

Pobřežní teplota vody

Lokalita Teplota

Stations

Poblíž povětrnostní stanice

Lokace stanice Tepl. Ochlazování větrem Rosný bod Vlhkost Vítr Precip. Výška Čas hlášení Typ